Terminal Aerodrome Forecast
Issued by NWS State College, PA

Home | Current Version | Previous Version | Text Only | Print | Product List | Glossary On
Versions: 1 2 3 4 5 6 7 8 9 10 11 12 13 14 15 16 17 18 19 20 21 22 23 24 25 26 27 28 29 30 31 32 33 34 35 36 37 38 39 40 41 42 43 44 45 46 47 48
175
FTUS41 KCTP 222210 AAA
TAFMDT
TAF AMD
KMDT 222210Z 2222/2318 VRB03KT P6SM FEW100 BKN200
     FM230600 VRB02KT 3SM BR SCT010
     FM230800 17002KT 1SM BR OVC050
     FM231000 00000KT 1/2SM FG OVC003
     FM231400 18003KT 4SM BR OVC050=

USA.gov is the U.S. government's official web portal to all federal, state and local government web resources and services.